createdAt,value
2023-01-18T00:00:43.051Z,0.90
2023-01-18T00:02:49.306Z,0.90
2023-01-18T00:04:52.651Z,0.90
2023-01-18T00:06:57.462Z,0.90
2023-01-18T00:09:00.796Z,0.90
2023-01-18T00:11:05.331Z,0.90
2023-01-18T00:13:08.656Z,0.80
2023-01-18T00:15:13.114Z,0.80
2023-01-18T00:17:16.436Z,0.80
2023-01-18T00:19:21.155Z,0.90
2023-01-18T00:21:25.443Z,0.80
2023-01-18T00:23:28.861Z,0.80
2023-01-18T00:25:32.250Z,0.80
2023-01-18T00:27:35.496Z,0.80
2023-01-18T00:29:38.978Z,0.80
2023-01-18T00:31:42.753Z,0.80
2023-01-18T00:33:46.579Z,0.80
2023-01-18T00:35:58.532Z,0.80
2023-01-18T00:38:01.925Z,0.80
2023-01-18T00:40:07.592Z,0.80
2023-01-18T00:42:28.123Z,0.70
2023-01-18T00:44:32.065Z,0.80
2023-01-18T00:46:35.396Z,0.70
2023-01-18T00:48:39.982Z,0.70
2023-01-18T00:50:43.476Z,0.70
2023-01-18T00:52:48.463Z,0.70
2023-01-18T00:54:51.896Z,0.60
2023-01-18T00:56:55.181Z,0.60
2023-01-18T00:58:58.684Z,0.70
2023-01-18T01:01:02.365Z,0.70
2023-01-18T01:03:06.217Z,0.70
2023-01-18T01:05:34.827Z,0.70
2023-01-18T01:07:38.155Z,0.70
2023-01-18T01:09:44.352Z,0.80
2023-01-18T01:12:02.188Z,0.80
2023-01-18T01:14:24.420Z,0.90
2023-01-18T01:16:45.113Z,0.90
2023-01-18T01:19:05.828Z,0.90
2023-01-18T01:21:26.918Z,0.90
2023-01-18T01:23:47.528Z,0.90
2023-01-18T01:26:10.939Z,0.90
2023-01-18T01:28:14.335Z,0.90
2023-01-18T01:30:17.942Z,0.90
2023-01-18T01:32:21.343Z,0.90
2023-01-18T01:34:23.744Z,0.90
2023-01-18T01:36:30.425Z,0.90
2023-01-18T01:38:33.691Z,0.90
2023-01-18T01:40:37.154Z,0.90
2023-01-18T01:42:42.184Z,0.90
2023-01-18T01:44:52.329Z,0.90
2023-01-18T01:46:58.590Z,1.00
2023-01-18T01:49:08.092Z,1.10
2023-01-18T01:51:12.008Z,1.10
2023-01-18T01:53:15.399Z,1.00
2023-01-18T01:55:25.687Z,1.00
2023-01-18T01:57:32.071Z,1.00
2023-01-18T01:59:40.560Z,1.00
2023-01-18T02:01:44.548Z,1.00
2023-01-18T02:03:48.028Z,1.00
2023-01-18T02:06:03.117Z,1.00
2023-01-18T02:08:11.542Z,0.90
2023-01-18T02:10:15.363Z,0.90
2023-01-18T02:12:18.709Z,0.90
2023-01-18T02:14:24.747Z,0.90
2023-01-18T02:16:41.346Z,1.00
2023-01-18T02:18:53.045Z,1.00
2023-01-18T02:21:18.040Z,1.00
2023-01-18T02:23:47.914Z,1.00
2023-01-18T02:26:17.829Z,1.00
2023-01-18T02:28:26.741Z,1.00
2023-01-18T02:30:33.602Z,1.00
2023-01-18T02:32:48.467Z,0.90
2023-01-18T02:34:56.735Z,0.90
2023-01-18T02:37:07.837Z,0.90
2023-01-18T02:39:23.539Z,0.90
2023-01-18T02:41:52.847Z,0.90
2023-01-18T02:44:16.508Z,0.90
2023-01-18T02:46:30.799Z,0.90
2023-01-18T02:48:39.982Z,0.90
2023-01-18T02:50:43.325Z,0.90
2023-01-18T02:52:47.655Z,0.90
2023-01-18T02:54:50.911Z,0.80
2023-01-18T02:56:55.604Z,0.90
2023-01-18T02:59:05.184Z,0.90
2023-01-18T03:01:12.397Z,0.80
2023-01-18T03:03:18.911Z,0.90
2023-01-18T03:05:24.454Z,0.90
2023-01-18T03:07:33.692Z,0.90
2023-01-18T03:09:37.360Z,0.80
2023-01-18T03:11:46.693Z,0.80
2023-01-18T03:14:09.179Z,0.80
2023-01-18T03:16:19.516Z,0.80
2023-01-18T03:18:31.601Z,0.80
2023-01-18T03:20:37.739Z,0.80
2023-01-18T03:23:01.589Z,0.80
2023-01-18T03:25:05.331Z,0.80
2023-01-18T03:27:27.064Z,0.90
2023-01-18T03:29:49.193Z,0.90
2023-01-18T03:32:13.469Z,0.90
2023-01-18T03:34:23.934Z,0.90
2023-01-18T03:36:31.678Z,0.90
2023-01-18T03:38:35.731Z,0.90
2023-01-18T03:40:39.345Z,0.90
2023-01-18T03:42:51.311Z,0.90
2023-01-18T03:45:01.200Z,0.80
2023-01-18T03:47:06.086Z,0.80
2023-01-18T03:49:10.027Z,0.80
2023-01-18T03:51:20.781Z,0.80
2023-01-18T03:53:32.718Z,0.70
2023-01-18T03:55:42.718Z,0.70
2023-01-18T03:57:50.229Z,0.70
2023-01-18T03:59:55.129Z,0.70
2023-01-18T04:01:58.598Z,0.60
2023-01-18T04:04:02.058Z,0.60
2023-01-18T04:06:08.762Z,0.60
2023-01-18T04:08:12.052Z,0.50
2023-01-18T04:10:15.623Z,0.50
2023-01-18T04:12:19.050Z,0.50
2023-01-18T04:14:22.431Z,0.50
2023-01-18T04:16:27.125Z,0.50
2023-01-18T04:18:30.424Z,0.40
2023-01-18T04:20:33.722Z,0.40
2023-01-18T04:22:36.995Z,0.50
2023-01-18T04:24:40.274Z,0.50
2023-01-18T04:26:43.568Z,0.50
2023-01-18T04:28:46.756Z,0.50
2023-01-18T04:30:51.512Z,0.50
2023-01-18T04:32:56.415Z,0.50
2023-01-18T04:35:00.021Z,0.60
2023-01-18T04:37:03.641Z,0.50
2023-01-18T04:39:07.233Z,0.50
2023-01-18T04:41:10.628Z,0.60
2023-01-18T04:43:14.044Z,0.60
2023-01-18T04:45:18.311Z,0.60
2023-01-18T04:47:21.660Z,0.60
2023-01-18T04:49:27.894Z,0.60
2023-01-18T04:51:31.524Z,0.60
2023-01-18T04:53:36.720Z,0.60
2023-01-18T04:55:43.530Z,0.50
2023-01-18T04:57:47.022Z,0.50
2023-01-18T04:59:50.336Z,0.50
2023-01-18T05:01:53.613Z,0.50
2023-01-18T05:03:57.885Z,0.60
2023-01-18T05:06:02.607Z,0.60
2023-01-18T05:08:06.144Z,0.60
2023-01-18T05:10:10.757Z,0.50
2023-01-18T05:12:14.117Z,0.50
2023-01-18T05:14:17.807Z,0.60
2023-01-18T05:16:23.797Z,0.50
2023-01-18T05:18:27.412Z,0.50
2023-01-18T05:20:30.923Z,0.50
2023-01-18T05:22:37.313Z,0.60
2023-01-18T05:24:40.693Z,0.60
2023-01-18T05:26:43.999Z,0.60
2023-01-18T05:28:47.824Z,0.60
2023-01-18T05:30:51.496Z,0.60
2023-01-18T05:32:54.760Z,0.60
2023-01-18T05:34:58.087Z,0.60
2023-01-18T05:37:01.472Z,0.60
2023-01-18T05:39:06.613Z,0.60
2023-01-18T05:41:10.110Z,0.60
2023-01-18T05:43:13.879Z,0.60
2023-01-18T05:45:17.482Z,0.60
2023-01-18T05:47:20.832Z,0.60
2023-01-18T05:49:24.144Z,0.70
2023-01-18T05:51:27.618Z,0.80
2023-01-18T05:53:30.946Z,0.80
2023-01-18T05:55:35.719Z,0.70
2023-01-18T05:57:39.057Z,0.70
2023-01-18T05:59:42.376Z,0.70
2023-01-18T06:01:46.005Z,0.70
2023-01-18T06:03:49.309Z,0.70
2023-01-18T06:05:53.007Z,0.70
2023-01-18T06:07:56.332Z,0.80
2023-01-18T06:10:00.181Z,0.80
2023-01-18T06:12:04.937Z,0.80
2023-01-18T06:14:09.023Z,0.80
2023-01-18T06:16:13.336Z,0.80
2023-01-18T06:18:16.792Z,0.80
2023-01-18T06:20:20.154Z,0.80
2023-01-18T06:22:24.076Z,0.80
2023-01-18T06:24:27.489Z,0.70
2023-01-18T06:26:31.337Z,0.80
2023-01-18T06:28:36.022Z,0.80
2023-01-18T06:30:39.509Z,0.80
2023-01-18T06:32:42.867Z,0.70
2023-01-18T06:34:46.407Z,0.70
2023-01-18T06:36:49.754Z,0.70
2023-01-18T06:38:53.088Z,0.70
2023-01-18T06:40:56.640Z,0.70
2023-01-18T06:43:00.480Z,0.80
2023-01-18T06:45:06.738Z,0.70
2023-01-18T06:47:10.203Z,0.80
2023-01-18T06:49:13.835Z,0.80
2023-01-18T06:51:17.120Z,0.80
2023-01-18T06:53:21.746Z,0.80
2023-01-18T06:55:25.074Z,0.80
2023-01-18T06:57:31.804Z,0.90
2023-01-18T06:59:35.262Z,0.80
2023-01-18T07:01:40.076Z,0.80
2023-01-18T07:03:43.523Z,0.80
2023-01-18T07:05:48.545Z,0.80
2023-01-18T07:07:52.006Z,0.80
2023-01-18T07:09:55.289Z,0.80
2023-01-18T07:11:58.620Z,0.80
2023-01-18T07:14:01.873Z,0.80
2023-01-18T07:16:05.425Z,0.90
2023-01-18T07:18:10.167Z,0.90
2023-01-18T07:20:15.858Z,1.00
2023-01-18T07:22:19.678Z,1.00
2023-01-18T07:24:23.762Z,1.00
2023-01-18T07:26:27.755Z,1.20
2023-01-18T07:28:32.066Z,1.20
2023-01-18T07:30:36.812Z,1.40
2023-01-18T07:32:40.338Z,1.30
2023-01-18T07:34:45.116Z,1.40
2023-01-18T07:36:48.648Z,1.40
2023-01-18T07:38:52.427Z,1.50
2023-01-18T07:41:02.325Z,1.40
2023-01-18T07:43:05.684Z,1.50
2023-01-18T07:45:10.612Z,1.60
2023-01-18T07:47:14.194Z,1.70
2023-01-18T07:49:18.424Z,1.60
2023-01-18T07:51:24.061Z,1.80
2023-01-18T07:53:28.816Z,2.00
2023-01-18T07:55:33.537Z,2.00
2023-01-18T07:57:37.049Z,2.10
2023-01-18T07:59:40.505Z,2.20
2023-01-18T08:01:44.251Z,2.20
2023-01-18T08:03:49.464Z,2.30
2023-01-18T08:05:52.929Z,2.40
2023-01-18T08:07:57.808Z,2.40
2023-01-18T08:10:01.293Z,2.50
2023-01-18T08:12:07.002Z,2.70
2023-01-18T08:14:10.396Z,2.60
2023-01-18T08:16:14.572Z,2.70
2023-01-18T08:18:18.186Z,2.80
2023-01-18T08:20:22.151Z,2.70
2023-01-18T08:22:25.567Z,2.60
2023-01-18T08:24:30.633Z,2.60
2023-01-18T08:26:34.742Z,2.60
2023-01-18T08:28:38.280Z,2.60
2023-01-18T08:30:44.055Z,2.60
2023-01-18T08:32:47.723Z,2.60
2023-01-18T08:34:51.591Z,2.60
2023-01-18T08:36:55.235Z,2.50
2023-01-18T08:38:59.266Z,2.50
2023-01-18T08:41:05.493Z,2.50
2023-01-18T08:43:09.470Z,2.60
2023-01-18T08:45:13.019Z,2.60
2023-01-18T08:47:17.127Z,2.70
2023-01-18T08:49:20.477Z,2.70
2023-01-18T08:51:26.206Z,2.60
2023-01-18T08:53:33.416Z,2.70
2023-01-18T08:55:38.068Z,2.70
2023-01-18T08:57:42.934Z,2.60
2023-01-18T08:59:46.262Z,2.60
2023-01-18T09:01:49.718Z,2.50
2023-01-18T09:03:56.199Z,2.50
2023-01-18T09:06:02.137Z,2.50
2023-01-18T09:08:05.631Z,2.50
2023-01-18T09:10:11.077Z,2.50
2023-01-18T09:12:14.584Z,2.50
2023-01-18T09:14:19.760Z,2.50
2023-01-18T09:16:23.883Z,2.50
2023-01-18T09:18:27.192Z,2.60
2023-01-18T09:20:30.497Z,2.60
2023-01-18T09:22:33.816Z,2.60
2023-01-18T09:24:37.682Z,2.70
2023-01-18T09:26:41.013Z,2.70
2023-01-18T09:28:46.041Z,2.60
2023-01-18T09:30:50.796Z,2.70
2023-01-18T09:32:54.432Z,2.70
2023-01-18T09:34:57.779Z,2.70
2023-01-18T09:37:01.430Z,2.70
2023-01-18T09:39:07.391Z,2.70
2023-01-18T09:41:33.228Z,2.70
2023-01-18T09:43:39.832Z,2.80
2023-01-18T09:45:44.524Z,2.60
2023-01-18T09:47:54.123Z,2.60
2023-01-18T09:49:58.549Z,2.70
2023-01-18T09:52:13.227Z,2.70
2023-01-18T09:54:29.969Z,2.50
2023-01-18T09:56:39.442Z,2.50
2023-01-18T09:58:52.684Z,2.60
2023-01-18T10:01:03.810Z,2.80
2023-01-18T10:03:15.107Z,2.80
2023-01-18T10:05:21.487Z,2.80
2023-01-18T10:07:27.767Z,2.80
2023-01-18T10:09:35.812Z,2.90
2023-01-18T10:11:47.379Z,2.80
2023-01-18T10:13:58.508Z,2.90
2023-01-18T10:16:02.855Z,2.90
2023-01-18T10:18:06.302Z,2.90
2023-01-18T10:20:19.724Z,2.90
2023-01-18T10:22:27.593Z,3.00
2023-01-18T10:24:40.950Z,3.10
2023-01-18T10:26:45.119Z,3.20
2023-01-18T10:28:57.271Z,3.40
2023-01-18T10:31:16.146Z,3.50
2023-01-18T10:33:24.939Z,3.50
2023-01-18T10:35:32.635Z,3.40
2023-01-18T10:37:43.646Z,3.40
2023-01-18T10:39:52.353Z,3.50
2023-01-18T10:42:00.632Z,3.40
2023-01-18T10:44:04.043Z,3.40
2023-01-18T10:46:14.863Z,3.40
2023-01-18T10:48:29.751Z,3.50
2023-01-18T10:50:42.473Z,3.70
2023-01-18T10:52:45.897Z,3.90
2023-01-18T10:54:52.626Z,4.30
2023-01-18T10:57:03.716Z,4.80
2023-01-18T10:59:07.143Z,5.40
2023-01-18T11:01:17.274Z,6.60
2023-01-18T11:03:22.128Z,7.30
2023-01-18T11:05:30.565Z,7.30
2023-01-18T11:07:35.407Z,7.50
2023-01-18T11:09:43.728Z,7.70
2023-01-18T11:12:04.744Z,8.10
2023-01-18T11:14:25.061Z,8.60
2023-01-18T11:16:29.418Z,8.60
2023-01-18T11:18:33.243Z,9.00
2023-01-18T11:20:43.600Z,9.50
2023-01-18T11:22:59.019Z,9.30
2023-01-18T11:25:02.901Z,8.70
2023-01-18T11:27:13.303Z,9.20
2023-01-18T11:29:20.900Z,9.30
2023-01-18T11:31:26.119Z,9.00
2023-01-18T11:33:34.138Z,8.90
2023-01-18T11:35:38.758Z,8.80
2023-01-18T11:37:44.517Z,8.70
2023-01-18T11:39:49.640Z,8.80
2023-01-18T11:42:10.954Z,9.20
2023-01-18T11:44:20.491Z,8.60
2023-01-18T11:46:35.042Z,8.80
2023-01-18T11:48:43.553Z,8.80
2023-01-18T11:50:52.813Z,8.70
2023-01-18T11:53:04.838Z,8.60
2023-01-18T11:55:20.737Z,9.10
2023-01-18T11:57:24.121Z,9.40
2023-01-18T11:59:31.167Z,9.10
2023-01-18T12:02:11.956Z,8.20
2023-01-18T12:04:25.499Z,8.20
2023-01-18T12:06:39.466Z,8.00
2023-01-18T12:08:55.898Z,7.80
2023-01-18T12:11:18.932Z,7.40
2023-01-18T12:13:40.558Z,7.30
2023-01-18T12:16:01.355Z,7.10
2023-01-18T12:18:24.207Z,7.20
2023-01-18T12:20:35.478Z,7.30
2023-01-18T12:23:33.363Z,7.20
2023-01-18T12:26:11.350Z,7.70
2023-01-18T12:28:31.527Z,8.30
2023-01-18T12:30:47.120Z,8.00
2023-01-18T12:33:14.457Z,7.90
2023-01-18T12:35:35.701Z,7.80
2023-01-18T12:37:47.107Z,7.50
2023-01-18T12:40:06.236Z,7.50
2023-01-18T12:42:16.622Z,7.50
2023-01-18T12:44:39.004Z,7.30
2023-01-18T12:46:48.072Z,7.40
2023-01-18T12:48:55.806Z,7.60
2023-01-18T12:51:00.683Z,7.50
2023-01-18T12:53:12.443Z,7.30
2023-01-18T12:55:21.436Z,7.10
2023-01-18T12:57:27.096Z,6.80
2023-01-18T12:59:39.917Z,6.70
2023-01-18T13:01:47.519Z,6.50
2023-01-18T13:03:55.024Z,6.40
2023-01-18T13:06:00.407Z,6.50
2023-01-18T13:08:09.270Z,6.50
2023-01-18T13:10:20.144Z,6.40
2023-01-18T13:12:24.835Z,6.30
2023-01-18T13:14:35.465Z,6.20
2023-01-18T13:16:45.619Z,6.30
2023-01-18T13:18:56.639Z,6.30
2023-01-18T13:21:10.386Z,6.20
2023-01-18T13:23:26.776Z,6.10
2023-01-18T13:25:39.716Z,6.00
2023-01-18T13:27:58.740Z,5.90
2023-01-18T13:30:16.801Z,5.80
2023-01-18T13:32:26.523Z,5.70
2023-01-18T13:34:34.049Z,5.50
2023-01-18T13:36:45.739Z,5.40
2023-01-18T13:38:53.376Z,5.40
2023-01-18T13:41:01.405Z,5.50
2023-01-18T13:43:07.783Z,5.40
2023-01-18T13:45:19.397Z,5.50
2023-01-18T13:47:53.499Z,5.30
2023-01-18T13:49:57.327Z,5.10
2023-01-18T13:52:00.849Z,5.00
2023-01-18T13:54:04.622Z,4.90
2023-01-18T13:56:30.377Z,4.90
2023-01-18T13:58:37.987Z,4.80
2023-01-18T14:00:49.078Z,4.70
2023-01-18T14:02:56.736Z,4.80
2023-01-18T14:05:07.804Z,4.80
2023-01-18T14:07:22.002Z,4.70
2023-01-18T14:09:41.001Z,4.70
2023-01-18T14:11:53.268Z,4.70
2023-01-18T14:14:06.603Z,4.70
2023-01-18T14:16:18.910Z,4.50
2023-01-18T14:18:25.495Z,4.50
2023-01-18T14:21:05.204Z,4.50
2023-01-18T14:23:30.307Z,4.40
2023-01-18T14:25:56.040Z,4.30
2023-01-18T14:28:09.170Z,4.30
2023-01-18T14:30:19.939Z,4.30
2023-01-18T14:32:29.885Z,4.20
2023-01-18T14:34:39.232Z,4.20
2023-01-18T14:36:42.708Z,4.10
2023-01-18T14:38:46.004Z,4.10
2023-01-18T14:40:51.463Z,4.10
2023-01-18T14:42:57.246Z,4.20
2023-01-18T14:45:02.544Z,4.10
2023-01-18T14:47:23.481Z,4.00
2023-01-18T14:49:35.075Z,4.00
2023-01-18T14:51:38.980Z,4.00
2023-01-18T14:53:47.600Z,3.90
2023-01-18T14:56:10.959Z,3.90
2023-01-18T14:58:16.295Z,3.90
2023-01-18T15:00:21.194Z,3.80
2023-01-18T15:02:27.767Z,3.80
2023-01-18T15:04:36.455Z,3.70
2023-01-18T15:06:42.864Z,3.80
2023-01-18T15:08:48.113Z,3.80
2023-01-18T15:10:51.782Z,3.70
2023-01-18T15:12:59.203Z,3.70
2023-01-18T15:15:10.101Z,3.70
2023-01-18T15:17:25.031Z,3.70
2023-01-18T15:19:37.649Z,3.60
2023-01-18T15:21:41.143Z,3.60
2023-01-18T15:23:44.835Z,3.60
2023-01-18T15:25:51.419Z,3.50
2023-01-18T15:27:56.015Z,3.50
2023-01-18T15:30:02.387Z,3.40
2023-01-18T15:32:12.366Z,3.40
2023-01-18T15:34:17.731Z,3.30
2023-01-18T15:36:22.822Z,3.30
2023-01-18T15:38:26.871Z,3.20
2023-01-18T15:40:31.532Z,3.20
2023-01-18T15:42:39.444Z,3.10
2023-01-18T15:44:47.364Z,3.10
2023-01-18T15:46:51.236Z,3.20
2023-01-18T15:48:57.952Z,3.20
2023-01-18T15:51:07.880Z,3.20
2023-01-18T15:53:20.257Z,3.20
2023-01-18T15:55:27.415Z,3.10
2023-01-18T15:57:31.026Z,3.10
2023-01-18T15:59:34.433Z,3.10
2023-01-18T16:01:38.305Z,3.00
2023-01-18T16:03:54.707Z,2.90
2023-01-18T16:06:15.215Z,2.80
2023-01-18T16:08:23.177Z,2.70
2023-01-18T16:10:31.540Z,2.60
2023-01-18T16:12:35.831Z,2.50
2023-01-18T16:14:46.087Z,2.40
2023-01-18T16:16:50.008Z,2.50
2023-01-18T16:19:03.612Z,2.50
2023-01-18T16:21:13.867Z,2.60
2023-01-18T16:23:23.070Z,2.60
2023-01-18T16:25:26.819Z,2.70
2023-01-18T16:27:32.487Z,2.60
2023-01-18T16:29:45.182Z,2.60
2023-01-18T16:31:49.364Z,2.60
2023-01-18T16:33:52.848Z,2.60
2023-01-18T16:35:56.464Z,2.50
2023-01-18T16:38:00.112Z,2.50
2023-01-18T16:40:08.971Z,2.50
2023-01-18T16:42:13.189Z,2.50
2023-01-18T16:44:16.780Z,2.50
2023-01-18T16:46:20.538Z,2.50
2023-01-18T16:48:25.709Z,2.50
2023-01-18T16:50:29.556Z,2.50
2023-01-18T16:52:33.123Z,2.50
2023-01-18T16:54:36.460Z,2.50
2023-01-18T16:56:45.983Z,2.50
2023-01-18T16:58:49.422Z,2.50
2023-01-18T17:00:57.462Z,2.50
2023-01-18T17:03:01.132Z,2.50
2023-01-18T17:05:04.529Z,2.60
2023-01-18T17:07:07.972Z,2.50
2023-01-18T17:09:19.840Z,2.50
2023-01-18T17:11:23.196Z,2.50
2023-01-18T17:13:27.959Z,2.50
2023-01-18T17:15:34.608Z,2.50
2023-01-18T17:17:38.102Z,2.60
2023-01-18T17:19:41.830Z,2.50
2023-01-18T17:21:46.979Z,2.50
2023-01-18T17:23:51.233Z,2.40
2023-01-18T17:25:54.522Z,2.40
2023-01-18T17:27:58.943Z,2.40
2023-01-18T17:30:04.052Z,2.30
2023-01-18T17:32:08.271Z,2.30
2023-01-18T17:34:12.885Z,2.30
2023-01-18T17:36:16.286Z,2.30
2023-01-18T17:38:25.663Z,2.30
2023-01-18T17:40:38.959Z,2.20
2023-01-18T17:42:44.369Z,2.10
2023-01-18T17:44:47.932Z,2.10
2023-01-18T17:46:52.747Z,2.00
2023-01-18T17:48:56.286Z,1.90
2023-01-18T17:50:59.675Z,1.90
2023-01-18T17:53:04.203Z,1.90
2023-01-18T17:55:09.361Z,1.90
2023-01-18T17:57:12.720Z,1.90
2023-01-18T17:59:16.332Z,1.90
2023-01-18T18:01:20.708Z,1.80
2023-01-18T18:03:25.453Z,1.80
2023-01-18T18:05:28.976Z,1.80
2023-01-18T18:07:32.444Z,1.80
2023-01-18T18:09:40.600Z,1.80
2023-01-18T18:11:44.350Z,1.80
2023-01-18T18:13:47.792Z,1.80
2023-01-18T18:15:52.173Z,1.90
2023-01-18T18:17:55.630Z,1.90
2023-01-18T18:20:00.678Z,1.80
2023-01-18T18:22:04.078Z,1.80
2023-01-18T18:24:07.897Z,1.80
2023-01-18T18:26:11.466Z,1.80
2023-01-18T18:28:15.451Z,1.80
2023-01-18T18:30:19.493Z,1.90
2023-01-18T18:32:24.995Z,1.80
2023-01-18T18:34:30.194Z,1.80
2023-01-18T18:36:36.065Z,1.70
2023-01-18T18:38:40.058Z,1.80
2023-01-18T18:40:44.651Z,1.80
2023-01-18T18:43:01.394Z,1.90
2023-01-18T18:45:08.223Z,1.90
2023-01-18T18:47:13.505Z,1.90
2023-01-18T18:49:18.218Z,1.90
2023-01-18T18:51:23.462Z,1.90
2023-01-18T18:53:37.630Z,1.80
2023-01-18T18:55:42.241Z,1.80
2023-01-18T18:57:45.402Z,1.70
2023-01-18T18:59:48.656Z,1.80
2023-01-18T19:01:52.314Z,1.80
2023-01-18T19:03:56.439Z,1.80
2023-01-18T19:05:59.751Z,1.70
2023-01-18T19:08:04.045Z,1.70
2023-01-18T19:10:11.620Z,1.70
2023-01-18T19:12:14.952Z,1.70
2023-01-18T19:14:18.342Z,1.70
2023-01-18T19:16:21.792Z,1.70
2023-01-18T19:18:29.359Z,1.70
2023-01-18T19:20:33.365Z,1.70
2023-01-18T19:22:39.121Z,1.70
2023-01-18T19:24:42.473Z,1.70
2023-01-18T19:26:47.291Z,1.70
2023-01-18T19:28:50.842Z,1.70
2023-01-18T19:30:54.568Z,1.70
2023-01-18T19:32:58.200Z,1.70
2023-01-18T19:35:01.824Z,1.70
2023-01-18T19:37:05.332Z,1.80
2023-01-18T19:39:21.487Z,1.90
2023-01-18T19:41:25.827Z,2.00
2023-01-18T19:43:30.627Z,2.00
2023-01-18T19:45:36.191Z,1.90
2023-01-18T19:47:40.177Z,2.00
2023-01-18T19:49:45.508Z,2.00
2023-01-18T19:51:49.717Z,2.00
2023-01-18T19:53:54.516Z,2.00
2023-01-18T19:56:06.989Z,2.00
2023-01-18T19:58:11.053Z,1.90
2023-01-18T20:00:16.744Z,1.90
2023-01-18T20:02:21.000Z,1.90
2023-01-18T20:04:25.014Z,1.90
2023-01-18T20:06:28.481Z,2.20
2023-01-18T20:08:31.707Z,2.40
2023-01-18T20:10:35.193Z,2.50
2023-01-18T20:12:38.591Z,2.50
2023-01-18T20:14:42.647Z,2.50
2023-01-18T20:16:48.537Z,2.50
2023-01-18T20:18:53.080Z,2.50
2023-01-18T20:20:57.173Z,2.50
2023-01-18T20:23:03.983Z,2.60
2023-01-18T20:25:08.416Z,2.50
2023-01-18T20:27:16.375Z,2.60
2023-01-18T20:29:20.452Z,2.60
2023-01-18T20:31:24.295Z,2.60
2023-01-18T20:33:29.390Z,2.60
2023-01-18T20:35:33.152Z,2.60
2023-01-18T20:37:37.568Z,2.60
2023-01-18T20:39:41.612Z,2.60
2023-01-18T20:41:45.292Z,2.60
2023-01-18T20:43:48.939Z,2.60
2023-01-18T20:46:01.992Z,2.50
2023-01-18T20:48:07.304Z,2.60
2023-01-18T20:50:12.978Z,2.50
2023-01-18T20:52:16.364Z,2.50
2023-01-18T20:54:21.429Z,2.40
2023-01-18T20:56:32.155Z,2.40
2023-01-18T20:58:50.599Z,2.40
2023-01-18T21:48:45.311Z,2.50
2023-01-18T21:51:05.833Z,2.40
2023-01-18T21:53:32.161Z,2.30
2023-01-18T21:55:37.185Z,2.40
2023-01-18T21:57:40.568Z,2.40
2023-01-18T21:59:45.039Z,2.30
2023-01-18T22:01:49.347Z,2.30
2023-01-18T22:04:12.886Z,2.20
2023-01-18T22:06:16.354Z,2.20
2023-01-18T22:08:19.665Z,2.20
2023-01-18T22:10:23.005Z,2.20
2023-01-18T22:12:26.750Z,2.20
2023-01-18T22:14:30.091Z,2.20
2023-01-18T22:16:33.898Z,2.20
2023-01-18T22:18:37.350Z,2.20
2023-01-18T22:20:42.263Z,2.30
2023-01-18T22:22:46.732Z,2.30
2023-01-18T22:24:50.066Z,2.20
2023-01-18T22:26:53.361Z,2.20
2023-01-18T22:28:56.975Z,2.30
2023-01-18T22:31:01.245Z,2.30
2023-01-18T22:33:05.781Z,2.30
2023-01-18T22:35:09.847Z,2.30
2023-01-18T22:37:17.807Z,2.30
2023-01-18T22:39:22.357Z,2.30
2023-01-18T22:41:28.051Z,2.40
2023-01-18T22:43:32.132Z,2.30
2023-01-18T22:45:35.474Z,2.20
2023-01-18T22:47:38.770Z,2.30
2023-01-18T22:49:42.023Z,2.20
2023-01-18T22:51:45.288Z,2.20
2023-01-18T22:53:50.718Z,2.20
2023-01-18T22:55:54.352Z,2.10
2023-01-18T22:57:58.255Z,2.20
2023-01-18T23:00:01.861Z,2.10
2023-01-18T23:02:05.308Z,2.10
2023-01-18T23:04:09.352Z,2.10
2023-01-18T23:06:13.367Z,2.00
2023-01-18T23:08:16.724Z,2.00
2023-01-18T23:10:21.657Z,2.00
2023-01-18T23:12:24.934Z,2.00
2023-01-18T23:14:45.467Z,1.90
2023-01-18T23:17:05.161Z,1.90
2023-01-18T23:19:08.537Z,1.90
2023-01-18T23:21:12.123Z,1.80
2023-01-18T23:23:15.318Z,1.80
2023-01-18T23:25:20.207Z,1.80
2023-01-18T23:27:23.964Z,1.80
2023-01-18T23:29:27.547Z,1.80
2023-01-18T23:31:31.626Z,1.80
2023-01-18T23:33:35.043Z,1.80
2023-01-18T23:35:38.559Z,1.90
2023-01-18T23:37:42.048Z,1.80
2023-01-18T23:40:02.858Z,1.80
2023-01-18T23:42:25.702Z,1.80
2023-01-18T23:44:46.786Z,1.80
2023-01-18T23:47:07.817Z,1.70
2023-01-18T23:49:28.612Z,1.70
2023-01-18T23:51:49.411Z,1.70
2023-01-18T23:54:10.251Z,1.70
2023-01-18T23:56:13.502Z,1.70
2023-01-18T23:58:18.140Z,1.70
